createdAt,value
2023-05-24T00:07:59.521Z,13.6
2023-05-24T00:27:59.502Z,13.2
2023-05-24T00:47:59.486Z,13.1
2023-05-24T01:07:59.467Z,13.1
2023-05-24T01:27:59.456Z,12.9
2023-05-24T01:47:59.418Z,12.8
2023-05-24T02:07:59.422Z,12.6
2023-05-24T02:27:59.374Z,12.5
2023-05-24T02:47:59.371Z,12.6
2023-05-24T03:07:59.402Z,12.4
2023-05-24T03:47:59.316Z,12.1
2023-05-24T04:07:59.336Z,12.2
2023-05-24T04:27:59.281Z,12.0
2023-05-24T04:47:59.259Z,11.7
2023-05-24T05:07:59.231Z,11.7
2023-05-24T05:27:59.193Z,11.6
2023-05-24T05:47:59.173Z,12.0
2023-05-24T06:07:59.223Z,12.0
2023-05-24T06:27:59.165Z,12.2
2023-05-24T06:47:59.207Z,12.6
2023-05-24T07:07:59.127Z,12.8
2023-05-24T07:27:59.074Z,13.1
2023-05-24T07:47:59.055Z,13.4
2023-05-24T08:07:59.049Z,13.9
2023-05-24T08:27:59.016Z,14.1
2023-05-24T08:47:59.050Z,14.1
2023-05-24T09:07:59.080Z,14.6
2023-05-24T09:27:58.973Z,15.0
2023-05-24T09:47:58.954Z,15.4
2023-05-24T10:07:59.158Z,15.7
2023-05-24T10:27:58.976Z,15.5
2023-05-24T10:47:58.862Z,15.8
2023-05-24T11:07:58.880Z,16.4
2023-05-24T11:27:58.816Z,16.8
2023-05-24T11:47:58.794Z,17.3
2023-05-24T12:07:58.791Z,17.1
2023-05-24T12:27:58.773Z,17.9
2023-05-24T12:47:58.734Z,18.4
2023-05-24T13:07:58.750Z,18.1
2023-05-24T13:27:58.680Z,18.4
2023-05-24T13:47:58.866Z,18.7
2023-05-24T14:07:58.613Z,18.9
2023-05-24T14:27:58.642Z,19.2
2023-05-24T14:47:58.622Z,18.4
2023-05-24T15:07:58.565Z,18.6
2023-05-24T15:27:58.550Z,18.2
2023-05-24T15:47:58.524Z,18.1
2023-05-24T16:07:58.565Z,17.6
2023-05-24T16:47:58.454Z,16.9
2023-05-24T17:27:58.396Z,16.8
2023-05-24T17:47:58.392Z,16.6
2023-05-24T18:07:58.416Z,16.4
2023-05-24T18:47:58.305Z,16.1
2023-05-24T19:07:58.267Z,15.8
2023-05-24T19:27:58.277Z,15.8
2023-05-24T19:47:58.334Z,15.6
2023-05-24T20:07:58.251Z,15.5
2023-05-24T20:27:58.210Z,15.5
2023-05-24T20:47:58.300Z,15.1
2023-05-24T21:07:58.147Z,14.7
2023-05-24T21:27:58.186Z,14.2
2023-05-24T21:47:58.109Z,13.9
2023-05-24T22:07:58.078Z,13.7
2023-05-24T22:27:58.115Z,13.5
2023-05-24T22:47:58.040Z,13.5
2023-05-24T23:07:58.026Z,13.5
2023-05-24T23:27:57.994Z,13.4
2023-05-24T23:47:58.009Z,13.1
